Center Ridge, Arkansas
Current Conditions -  °F | °C
As of 5:53 PM on Saturday 25 Oct 2014 (Local Time) from KRUE Reporting Station
Clear Clear  
Wind Chill: 78°   Ceiling: Unl
Heat Index: 80°   Visibility: 10mi
Dew Point: 66°   Wind: 0mph
Humidity: 66%   Direction: NA
Pressure: 30.02"   Gusts: NA
Location:  35.37°N, 92.56°W
Report Text: KRUE 252253Z AUTO 00000KT 10SM CLR 26/19 A3002 RMK AO2 SLP159 T02560189
Loading
Personal Weather Stations






























Interactive Weather Map
Tropical Storm Tracking
New forecast layout! Learn more

10-Day Weather Forecast

Advertisements
Track Severe Weather on mobile